sensor_id;sensor_type;location;lat;lon;timestamp;P1;durP1;ratioP1;P2;durP2;ratioP2
70825;SDS011;58446;41.490;22.098;2023-04-03T00:02:16;14.18;;;8.00;;
70825;SDS011;58446;41.490;22.098;2023-04-03T00:04:42;14.93;;;8.20;;
70825;SDS011;58446;41.490;22.098;2023-04-03T00:07:08;14.45;;;9.30;;
70825;SDS011;58446;41.490;22.098;2023-04-03T00:09:33;13.93;;;8.23;;
70825;SDS011;58446;41.490;22.098;2023-04-03T00:11:59;17.38;;;11.45;;
70825;SDS011;58446;41.490;22.098;2023-04-03T00:14:26;15.98;;;9.93;;
70825;SDS011;58446;41.490;22.098;2023-04-03T00:16:52;20.87;;;11.80;;
70825;SDS011;58446;41.490;22.098;2023-04-03T00:19:18;21.75;;;12.23;;
70825;SDS011;58446;41.490;22.098;2023-04-03T00:21:44;20.55;;;10.10;;
70825;SDS011;58446;41.490;22.098;2023-04-03T00:24:10;19.98;;;12.13;;
70825;SDS011;58446;41.490;22.098;2023-04-03T00:26:36;18.03;;;10.73;;
70825;SDS011;58446;41.490;22.098;2023-04-03T00:29:02;16.98;;;10.35;;
70825;SDS011;58446;41.490;22.098;2023-04-03T00:31:27;19.80;;;10.70;;
70825;SDS011;58446;41.490;22.098;2023-04-03T00:33:53;19.25;;;10.65;;
70825;SDS011;58446;41.490;22.098;2023-04-03T00:36:19;17.97;;;9.73;;
70825;SDS011;58446;41.490;22.098;2023-04-03T00:38:45;18.23;;;10.30;;
70825;SDS011;58446;41.490;22.098;2023-04-03T00:41:10;19.37;;;10.87;;
70825;SDS011;58446;41.490;22.098;2023-04-03T00:43:36;18.73;;;11.03;;
70825;SDS011;58446;41.490;22.098;2023-04-03T00:46:02;18.23;;;11.00;;
70825;SDS011;58446;41.490;22.098;2023-04-03T00:48:32;16.87;;;9.90;;
70825;SDS011;58446;41.490;22.098;2023-04-03T00:51:02;20.40;;;10.52;;
70825;SDS011;58446;41.490;22.098;2023-04-03T00:53:33;18.38;;;10.20;;
70825;SDS011;58446;41.490;22.098;2023-04-03T00:56:07;16.33;;;10.18;;
70825;SDS011;58446;41.490;22.098;2023-04-03T00:58:40;16.05;;;9.45;;
70825;SDS011;58446;41.490;22.098;2023-04-03T01:01:11;16.90;;;9.07;;
70825;SDS011;58446;41.490;22.098;2023-04-03T01:03:41;15.85;;;8.55;;
70825;SDS011;58446;41.490;22.098;2023-04-03T01:06:07;14.52;;;8.70;;
70825;SDS011;58446;41.490;22.098;2023-04-03T01:08:32;12.77;;;8.40;;
70825;SDS011;58446;41.490;22.098;2023-04-03T01:10:59;14.97;;;9.00;;
70825;SDS011;58446;41.490;22.098;2023-04-03T01:13:26;16.33;;;9.13;;
70825;SDS011;58446;41.490;22.098;2023-04-03T01:15:53;13.15;;;8.32;;
70825;SDS011;58446;41.490;22.098;2023-04-03T01:18:20;17.63;;;9.15;;
70825;SDS011;58446;41.490;22.098;2023-04-03T01:20:50;16.17;;;9.35;;
70825;SDS011;58446;41.490;22.098;2023-04-03T01:24:05;16.27;;;10.23;;
70825;SDS011;58446;41.490;22.098;2023-04-03T01:26:47;15.02;;;9.85;;
70825;SDS011;58446;41.490;22.098;2023-04-03T01:29:14;15.80;;;9.77;;
70825;SDS011;58446;41.490;22.098;2023-04-03T01:31:47;14.80;;;9.35;;
70825;SDS011;58446;41.490;22.098;2023-04-03T01:34:14;20.13;;;11.60;;
70825;SDS011;58446;41.490;22.098;2023-04-03T01:36:40;21.37;;;12.83;;
70825;SDS011;58446;41.490;22.098;2023-04-03T01:39:06;21.65;;;12.63;;
70825;SDS011;58446;41.490;22.098;2023-04-03T01:41:32;17.75;;;11.48;;
70825;SDS011;58446;41.490;22.098;2023-04-03T01:43:58;18.58;;;10.27;;
70825;SDS011;58446;41.490;22.098;2023-04-03T01:46:24;16.90;;;11.17;;
70825;SDS011;58446;41.490;22.098;2023-04-03T01:48:49;18.70;;;10.50;;
70825;SDS011;58446;41.490;22.098;2023-04-03T01:51:15;18.17;;;11.20;;
70825;SDS011;58446;41.490;22.098;2023-04-03T01:53:41;15.77;;;10.27;;
70825;SDS011;58446;41.490;22.098;2023-04-03T01:56:07;13.18;;;8.32;;
70825;SDS011;58446;41.490;22.098;2023-04-03T01:58:33;15.63;;;8.38;;
70825;SDS011;58446;41.490;22.098;2023-04-03T02:00:58;15.33;;;8.63;;
70825;SDS011;58446;41.490;22.098;2023-04-03T02:03:25;15.13;;;8.30;;
70825;SDS011;58446;41.490;22.098;2023-04-03T02:05:51;13.10;;;8.35;;
70825;SDS011;58446;41.490;22.098;2023-04-03T02:08:17;18.73;;;10.50;;
70825;SDS011;58446;41.490;22.098;2023-04-03T02:10:43;21.87;;;11.50;;
70825;SDS011;58446;41.490;22.098;2023-04-03T02:13:10;68.22;;;25.70;;
70825;SDS011;58446;41.490;22.098;2023-04-03T02:15:39;28.02;;;14.30;;
70825;SDS011;58446;41.490;22.098;2023-04-03T02:18:05;69.27;;;27.03;;
70825;SDS011;58446;41.490;22.098;2023-04-03T02:20:31;38.70;;;19.88;;
70825;SDS011;58446;41.490;22.098;2023-04-03T02:22:56;43.38;;;20.48;;
70825;SDS011;58446;41.490;22.098;2023-04-03T02:25:22;46.30;;;20.43;;
70825;SDS011;58446;41.490;22.098;2023-04-03T02:27:48;38.53;;;19.10;;
70825;SDS011;58446;41.490;22.098;2023-04-03T02:30:13;36.73;;;15.47;;
70825;SDS011;58446;41.490;22.098;2023-04-03T02:32:40;26.15;;;13.75;;
70825;SDS011;58446;41.490;22.098;2023-04-03T02:35:07;25.15;;;12.00;;
70825;SDS011;58446;41.490;22.098;2023-04-03T02:37:33;21.13;;;11.27;;
70825;SDS011;58446;41.490;22.098;2023-04-03T02:39:59;15.37;;;8.33;;
70825;SDS011;58446;41.490;22.098;2023-04-03T02:42:24;17.17;;;8.10;;
70825;SDS011;58446;41.490;22.098;2023-04-03T02:44:50;13.50;;;7.60;;
70825;SDS011;58446;41.490;22.098;2023-04-03T02:47:16;12.05;;;7.85;;
70825;SDS011;58446;41.490;22.098;2023-04-03T02:49:41;14.90;;;7.30;;
70825;SDS011;58446;41.490;22.098;2023-04-03T02:52:10;13.45;;;7.68;;
70825;SDS011;58446;41.490;22.098;2023-04-03T02:54:35;14.23;;;8.07;;
70825;SDS011;58446;41.490;22.098;2023-04-03T02:57:01;15.38;;;7.60;;
70825;SDS011;58446;41.490;22.098;2023-04-03T02:59:27;25.83;;;12.97;;
70825;SDS011;58446;41.490;22.098;2023-04-03T03:01:52;28.47;;;14.47;;
70825;SDS011;58446;41.490;22.098;2023-04-03T03:04:18;42.33;;;19.43;;
70825;SDS011;58446;41.490;22.098;2023-04-03T03:06:44;42.78;;;19.50;;
70825;SDS011;58446;41.490;22.098;2023-04-03T03:09:09;40.57;;;18.27;;
70825;SDS011;58446;41.490;22.098;2023-04-03T03:11:35;25.40;;;12.90;;
70825;SDS011;58446;41.490;22.098;2023-04-03T03:14:01;26.57;;;13.53;;
70825;SDS011;58446;41.490;22.098;2023-04-03T03:16:26;27.45;;;13.35;;
70825;SDS011;58446;41.490;22.098;2023-04-03T03:18:52;25.70;;;11.47;;
70825;SDS011;58446;41.490;22.098;2023-04-03T03:21:18;18.42;;;10.15;;
70825;SDS011;58446;41.490;22.098;2023-04-03T03:23:43;19.93;;;9.80;;
70825;SDS011;58446;41.490;22.098;2023-04-03T03:26:10;16.13;;;9.23;;
70825;SDS011;58446;41.490;22.098;2023-04-03T03:28:36;18.23;;;9.27;;
70825;SDS011;58446;41.490;22.098;2023-04-03T03:31:03;18.60;;;8.85;;
70825;SDS011;58446;41.490;22.098;2023-04-03T03:33:30;20.73;;;10.35;;
70825;SDS011;58446;41.490;22.098;2023-04-03T03:35:56;22.07;;;10.60;;
70825;SDS011;58446;41.490;22.098;2023-04-03T03:38:22;22.48;;;11.32;;
70825;SDS011;58446;41.490;22.098;2023-04-03T03:40:48;24.08;;;12.77;;
70825;SDS011;58446;41.490;22.098;2023-04-03T03:43:15;27.63;;;13.10;;
70825;SDS011;58446;41.490;22.098;2023-04-03T03:45:41;31.40;;;12.77;;
70825;SDS011;58446;41.490;22.098;2023-04-03T03:48:06;28.33;;;13.65;;
70825;SDS011;58446;41.490;22.098;2023-04-03T03:50:32;23.27;;;11.07;;
70825;SDS011;58446;41.490;22.098;2023-04-03T03:52:58;20.98;;;11.82;;
70825;SDS011;58446;41.490;22.098;2023-04-03T03:55:23;26.27;;;12.33;;
70825;SDS011;58446;41.490;22.098;2023-04-03T03:57:49;21.80;;;11.88;;
70825;SDS011;58446;41.490;22.098;2023-04-03T04:00:15;25.67;;;11.57;;
70825;SDS011;58446;41.490;22.098;2023-04-03T04:02:41;23.05;;;12.27;;
70825;SDS011;58446;41.490;22.098;2023-04-03T04:05:07;23.27;;;11.48;;
70825;SDS011;58446;41.490;22.098;2023-04-03T04:07:33;22.25;;;11.13;;
70825;SDS011;58446;41.490;22.098;2023-04-03T04:09:58;23.13;;;10.70;;
70825;SDS011;58446;41.490;22.098;2023-04-03T04:12:24;22.37;;;10.97;;
70825;SDS011;58446;41.490;22.098;2023-04-03T04:14:50;20.17;;;9.52;;
70825;SDS011;58446;41.490;22.098;2023-04-03T04:17:15;17.23;;;8.70;;
70825;SDS011;58446;41.490;22.098;2023-04-03T04:19:41;12.32;;;7.63;;
70825;SDS011;58446;41.490;22.098;2023-04-03T04:22:07;18.23;;;8.43;;
70825;SDS011;58446;41.490;22.098;2023-04-03T04:24:32;17.60;;;8.98;;
70825;SDS011;58446;41.490;22.098;2023-04-03T04:26:58;16.07;;;8.93;;
70825;SDS011;58446;41.490;22.098;2023-04-03T04:29:24;16.85;;;8.77;;
70825;SDS011;58446;41.490;22.098;2023-04-03T04:31:49;20.58;;;9.52;;
70825;SDS011;58446;41.490;22.098;2023-04-03T04:34:15;16.83;;;8.93;;
70825;SDS011;58446;41.490;22.098;2023-04-03T04:36:41;15.80;;;8.80;;
70825;SDS011;58446;41.490;22.098;2023-04-03T04:39:07;17.63;;;9.53;;
70825;SDS011;58446;41.490;22.098;2023-04-03T04:41:33;14.70;;;8.50;;
70825;SDS011;58446;41.490;22.098;2023-04-03T04:43:59;19.80;;;10.73;;
70825;SDS011;58446;41.490;22.098;2023-04-03T04:46:25;16.27;;;9.63;;
70825;SDS011;58446;41.490;22.098;2023-04-03T04:48:51;22.23;;;10.73;;
70825;SDS011;58446;41.490;22.098;2023-04-03T04:51:16;16.23;;;8.18;;
70825;SDS011;58446;41.490;22.098;2023-04-03T04:53:42;18.13;;;9.33;;
70825;SDS011;58446;41.490;22.098;2023-04-03T04:56:10;16.80;;;9.23;;
70825;SDS011;58446;41.490;22.098;2023-04-03T04:58:36;19.33;;;10.10;;
70825;SDS011;58446;41.490;22.098;2023-04-03T05:01:02;18.00;;;11.87;;
70825;SDS011;58446;41.490;22.098;2023-04-03T05:03:29;19.83;;;11.60;;
70825;SDS011;58446;41.490;22.098;2023-04-03T05:05:55;28.58;;;13.60;;
70825;SDS011;58446;41.490;22.098;2023-04-03T05:08:21;23.65;;;12.18;;
70825;SDS011;58446;41.490;22.098;2023-04-03T05:10:47;20.47;;;11.53;;
70825;SDS011;58446;41.490;22.098;2023-04-03T05:13:13;21.83;;;11.85;;
70825;SDS011;58446;41.490;22.098;2023-04-03T05:15:39;23.00;;;12.25;;
70825;SDS011;58446;41.490;22.098;2023-04-03T05:18:05;24.43;;;12.03;;
70825;SDS011;58446;41.490;22.098;2023-04-03T05:20:31;20.25;;;11.13;;
70825;SDS011;58446;41.490;22.098;2023-04-03T05:22:57;19.67;;;10.75;;
70825;SDS011;58446;41.490;22.098;2023-04-03T05:25:23;26.00;;;12.87;;
70825;SDS011;58446;41.490;22.098;2023-04-03T05:27:49;20.98;;;11.27;;
70825;SDS011;58446;41.490;22.098;2023-04-03T05:30:15;25.27;;;10.85;;
70825;SDS011;58446;41.490;22.098;2023-04-03T05:32:41;20.33;;;11.18;;
70825;SDS011;58446;41.490;22.098;2023-04-03T05:35:07;21.60;;;10.90;;
70825;SDS011;58446;41.490;22.098;2023-04-03T05:37:34;22.27;;;11.40;;
70825;SDS011;58446;41.490;22.098;2023-04-03T05:40:00;19.95;;;11.15;;
70825;SDS011;58446;41.490;22.098;2023-04-03T05:42:27;18.33;;;10.10;;
70825;SDS011;58446;41.490;22.098;2023-04-03T05:44:52;18.65;;;10.35;;
70825;SDS011;58446;41.490;22.098;2023-04-03T05:47:18;18.50;;;10.18;;
70825;SDS011;58446;41.490;22.098;2023-04-03T05:49:44;23.60;;;11.43;;
70825;SDS011;58446;41.490;22.098;2023-04-03T05:52:33;18.88;;;10.60;;
70825;SDS011;58446;41.490;22.098;2023-04-03T05:54:58;20.88;;;10.38;;
70825;SDS011;58446;41.490;22.098;2023-04-03T05:57:24;19.57;;;9.50;;
70825;SDS011;58446;41.490;22.098;2023-04-03T05:59:50;20.27;;;9.75;;
70825;SDS011;58446;41.490;22.098;2023-04-03T06:02:18;21.77;;;10.23;;
70825;SDS011;58446;41.490;22.098;2023-04-03T06:04:45;20.13;;;9.10;;
70825;SDS011;58446;41.490;22.098;2023-04-03T06:07:14;22.50;;;10.38;;
70825;SDS011;58446;41.490;22.098;2023-04-03T06:09:41;24.13;;;9.80;;
70825;SDS011;58446;41.490;22.098;2023-04-03T06:12:07;17.52;;;9.55;;
70825;SDS011;58446;41.490;22.098;2023-04-03T06:14:33;17.67;;;9.27;;
70825;SDS011;58446;41.490;22.098;2023-04-03T06:16:59;17.13;;;8.63;;
70825;SDS011;58446;41.490;22.098;2023-04-03T06:19:27;14.90;;;8.70;;
70825;SDS011;58446;41.490;22.098;2023-04-03T06:21:53;14.93;;;7.93;;
70825;SDS011;58446;41.490;22.098;2023-04-03T06:24:21;14.07;;;8.32;;
70825;SDS011;58446;41.490;22.098;2023-04-03T06:26:49;15.33;;;8.77;;
70825;SDS011;58446;41.490;22.098;2023-04-03T06:29:16;12.85;;;7.97;;
70825;SDS011;58446;41.490;22.098;2023-04-03T06:31:42;15.13;;;7.80;;
70825;SDS011;58446;41.490;22.098;2023-04-03T06:34:10;12.00;;;7.43;;
70825;SDS011;58446;41.490;22.098;2023-04-03T06:36:36;11.82;;;7.45;;
70825;SDS011;58446;41.490;22.098;2023-04-03T06:39:03;12.53;;;7.43;;
70825;SDS011;58446;41.490;22.098;2023-04-03T06:41:29;14.40;;;6.30;;
70825;SDS011;58446;41.490;22.098;2023-04-03T06:43:55;11.32;;;6.70;;
70825;SDS011;58446;41.490;22.098;2023-04-03T06:46:23;12.05;;;6.90;;
70825;SDS011;58446;41.490;22.098;2023-04-03T06:48:51;14.10;;;7.33;;
70825;SDS011;58446;41.490;22.098;2023-04-03T06:51:24;12.20;;;7.38;;
70825;SDS011;58446;41.490;22.098;2023-04-03T06:53:52;13.38;;;7.22;;
70825;SDS011;58446;41.490;22.098;2023-04-03T06:56:19;14.27;;;9.30;;
70825;SDS011;58446;41.490;22.098;2023-04-03T06:58:45;11.67;;;7.40;;
70825;SDS011;58446;41.490;22.098;2023-04-03T07:01:12;13.80;;;7.10;;
70825;SDS011;58446;41.490;22.098;2023-04-03T07:03:39;16.33;;;10.57;;
70825;SDS011;58446;41.490;22.098;2023-04-03T07:06:05;15.68;;;8.13;;
70825;SDS011;58446;41.490;22.098;2023-04-03T07:08:32;13.13;;;8.77;;
70825;SDS011;58446;41.490;22.098;2023-04-03T07:10:58;14.03;;;8.90;;
70825;SDS011;58446;41.490;22.098;2023-04-03T07:13:24;17.25;;;10.10;;
70825;SDS011;58446;41.490;22.098;2023-04-03T07:15:49;15.13;;;9.13;;
70825;SDS011;58446;41.490;22.098;2023-04-03T07:18:15;17.57;;;10.17;;
70825;SDS011;58446;41.490;22.098;2023-04-03T07:20:42;21.88;;;12.15;;
70825;SDS011;58446;41.490;22.098;2023-04-03T07:23:08;21.77;;;12.88;;
70825;SDS011;58446;41.490;22.098;2023-04-03T07:25:34;19.23;;;12.30;;
70825;SDS011;58446;41.490;22.098;2023-04-03T07:28:02;29.60;;;17.35;;
70825;SDS011;58446;41.490;22.098;2023-04-03T07:30:29;21.95;;;11.93;;
70825;SDS011;58446;41.490;22.098;2023-04-03T07:32:54;30.25;;;17.95;;
70825;SDS011;58446;41.490;22.098;2023-04-03T07:35:20;27.33;;;13.27;;
70825;SDS011;58446;41.490;22.098;2023-04-03T07:37:46;22.38;;;15.40;;
70825;SDS011;58446;41.490;22.098;2023-04-03T07:40:11;33.53;;;20.27;;
70825;SDS011;58446;41.490;22.098;2023-04-03T07:42:37;24.38;;;15.75;;
70825;SDS011;58446;41.490;22.098;2023-04-03T07:45:03;29.87;;;17.33;;
70825;SDS011;58446;41.490;22.098;2023-04-03T07:47:30;24.58;;;16.13;;
70825;SDS011;58446;41.490;22.098;2023-04-03T07:49:56;27.67;;;16.50;;
70825;SDS011;58446;41.490;22.098;2023-04-03T07:52:23;29.08;;;16.02;;
70825;SDS011;58446;41.490;22.098;2023-04-03T07:54:49;24.52;;;16.13;;
70825;SDS011;58446;41.490;22.098;2023-04-03T07:57:15;27.87;;;15.80;;
70825;SDS011;58446;41.490;22.098;2023-04-03T07:59:41;27.00;;;15.93;;
70825;SDS011;58446;41.490;22.098;2023-04-03T08:02:11;28.13;;;17.08;;
70825;SDS011;58446;41.490;22.098;2023-04-03T08:04:37;23.17;;;14.85;;
70825;SDS011;58446;41.490;22.098;2023-04-03T08:07:03;23.30;;;13.73;;
70825;SDS011;58446;41.490;22.098;2023-04-03T08:09:29;20.98;;;13.77;;
70825;SDS011;58446;41.490;22.098;2023-04-03T08:11:54;22.23;;;13.50;;
70825;SDS011;58446;41.490;22.098;2023-04-03T08:14:20;26.80;;;13.75;;
70825;SDS011;58446;41.490;22.098;2023-04-03T08:16:46;20.77;;;13.30;;
70825;SDS011;58446;41.490;22.098;2023-04-03T08:19:13;18.63;;;12.00;;
70825;SDS011;58446;41.490;22.098;2023-04-03T08:21:41;21.83;;;14.13;;
70825;SDS011;58446;41.490;22.098;2023-04-03T08:24:07;20.65;;;13.25;;
70825;SDS011;58446;41.490;22.098;2023-04-03T08:26:34;25.00;;;14.33;;
70825;SDS011;58446;41.490;22.098;2023-04-03T08:29:00;21.90;;;12.88;;
70825;SDS011;58446;41.490;22.098;2023-04-03T08:31:26;18.27;;;10.93;;
70825;SDS011;58446;41.490;22.098;2023-04-03T08:33:52;16.30;;;11.20;;
70825;SDS011;58446;41.490;22.098;2023-04-03T08:36:22;20.40;;;11.60;;
70825;SDS011;58446;41.490;22.098;2023-04-03T08:38:53;18.65;;;11.85;;
70825;SDS011;58446;41.490;22.098;2023-04-03T08:41:29;19.00;;;12.13;;
70825;SDS011;58446;41.490;22.098;2023-04-03T08:44:14;21.70;;;13.00;;
70825;SDS011;58446;41.490;22.098;2023-04-03T08:52:21;18.60;;;11.15;;
70825;SDS011;58446;41.490;22.098;2023-04-03T08:57:49;24.53;;;14.27;;
70825;SDS011;58446;41.490;22.098;2023-04-03T09:00:23;79.22;;;32.67;;
70825;SDS011;58446;41.490;22.098;2023-04-03T09:02:51;55.08;;;25.45;;
70825;SDS011;58446;41.490;22.098;2023-04-03T09:05:30;40.80;;;18.97;;
70825;SDS011;58446;41.490;22.098;2023-04-03T09:08:12;65.57;;;27.10;;
70825;SDS011;58446;41.490;22.098;2023-04-03T09:10:47;35.47;;;18.52;;
70825;SDS011;58446;41.490;22.098;2023-04-03T09:13:26;37.75;;;20.45;;
70825;SDS011;58446;41.490;22.098;2023-04-03T09:16:02;31.17;;;18.02;;
70825;SDS011;58446;41.490;22.098;2023-04-03T09:18:45;32.17;;;17.10;;
70825;SDS011;58446;41.490;22.098;2023-04-03T09:21:19;18.92;;;13.50;;
70825;SDS011;58446;41.490;22.098;2023-04-03T09:23:52;21.80;;;13.70;;
70825;SDS011;58446;41.490;22.098;2023-04-03T09:26:24;16.58;;;11.18;;
70825;SDS011;58446;41.490;22.098;2023-04-03T09:28:55;17.90;;;11.73;;
70825;SDS011;58446;41.490;22.098;2023-04-03T09:31:24;20.00;;;10.13;;
70825;SDS011;58446;41.490;22.098;2023-04-03T09:33:56;17.45;;;10.40;;
70825;SDS011;58446;41.490;22.098;2023-04-03T09:36:43;30.25;;;15.07;;
70825;SDS011;58446;41.490;22.098;2023-04-03T09:39:20;37.33;;;15.98;;
70825;SDS011;58446;41.490;22.098;2023-04-03T09:41:59;28.60;;;14.38;;
70825;SDS011;58446;41.490;22.098;2023-04-03T09:44:33;32.03;;;14.83;;
70825;SDS011;58446;41.490;22.098;2023-04-03T09:49:50;29.25;;;15.35;;
70825;SDS011;58446;41.490;22.098;2023-04-03T09:52:34;27.63;;;13.55;;
70825;SDS011;58446;41.490;22.098;2023-04-03T09:55:06;29.38;;;14.13;;
70825;SDS011;58446;41.490;22.098;2023-04-03T09:57:33;29.53;;;13.13;;
70825;SDS011;58446;41.490;22.098;2023-04-03T09:59:59;27.77;;;13.18;;
70825;SDS011;58446;41.490;22.098;2023-04-03T10:07:52;24.10;;;12.27;;
70825;SDS011;58446;41.490;22.098;2023-04-03T10:10:38;21.20;;;11.15;;
70825;SDS011;58446;41.490;22.098;2023-04-03T10:15:34;19.23;;;10.00;;
70825;SDS011;58446;41.490;22.098;2023-04-03T10:18:13;18.13;;;9.40;;
70825;SDS011;58446;41.490;22.098;2023-04-03T10:20:57;17.38;;;9.20;;
70825;SDS011;58446;41.490;22.098;2023-04-03T10:23:41;18.05;;;8.50;;
70825;SDS011;58446;41.490;22.098;2023-04-03T10:26:21;14.52;;;7.72;;
70825;SDS011;58446;41.490;22.098;2023-04-03T10:35:35;12.52;;;8.07;;
70825;SDS011;58446;41.490;22.098;2023-04-03T10:38:01;12.18;;;8.20;;
70825;SDS011;58446;41.490;22.098;2023-04-03T10:43:48;12.27;;;7.18;;
70825;SDS011;58446;41.490;22.098;2023-04-03T10:51:48;11.65;;;8.15;;
70825;SDS011;58446;41.490;22.098;2023-04-03T10:54:25;13.90;;;8.32;;
70825;SDS011;58446;41.490;22.098;2023-04-03T10:57:10;10.73;;;8.07;;
70825;SDS011;58446;41.490;22.098;2023-04-03T10:59:53;12.03;;;8.40;;
70825;SDS011;58446;41.490;22.098;2023-04-03T11:02:36;21.55;;;13.93;;
70825;SDS011;58446;41.490;22.098;2023-04-03T11:08:27;14.52;;;10.02;;
70825;SDS011;58446;41.490;22.098;2023-04-03T11:10:57;18.00;;;11.05;;
70825;SDS011;58446;41.490;22.098;2023-04-03T11:16:29;18.10;;;11.45;;
70825;SDS011;58446;41.490;22.098;2023-04-03T11:25:03;27.73;;;17.67;;
70825;SDS011;58446;41.490;22.098;2023-04-03T11:27:41;27.07;;;15.63;;
70825;SDS011;58446;41.490;22.098;2023-04-03T11:30:25;21.60;;;13.32;;
70825;SDS011;58446;41.490;22.098;2023-04-03T11:33:21;24.05;;;14.02;;
70825;SDS011;58446;41.490;22.098;2023-04-03T11:36:26;21.35;;;14.15;;
70825;SDS011;58446;41.490;22.098;2023-04-03T11:38:56;22.80;;;15.23;;
70825;SDS011;58446;41.490;22.098;2023-04-03T11:41:26;26.73;;;17.53;;
70825;SDS011;58446;41.490;22.098;2023-04-03T11:43:58;42.00;;;26.40;;
70825;SDS011;58446;41.490;22.098;2023-04-03T12:05:53;45.13;;;27.92;;
70825;SDS011;58446;41.490;22.098;2023-04-03T12:14:22;43.95;;;30.98;;
70825;SDS011;58446;41.490;22.098;2023-04-03T12:24:03;52.05;;;37.03;;
70825;SDS011;58446;41.490;22.098;2023-04-03T12:26:38;39.45;;;26.42;;
70825;SDS011;58446;41.490;22.098;2023-04-03T12:34:52;41.03;;;30.45;;
70825;SDS011;58446;41.490;22.098;2023-04-03T12:45:52;24.27;;;18.73;;
70825;SDS011;58446;41.490;22.098;2023-04-03T12:48:25;23.38;;;17.42;;
70825;SDS011;58446;41.490;22.098;2023-04-03T12:50:52;21.42;;;15.88;;
70825;SDS011;58446;41.490;22.098;2023-04-03T12:53:31;21.30;;;16.17;;
70825;SDS011;58446;41.490;22.098;2023-04-03T12:58:47;15.88;;;13.02;;
70825;SDS011;58446;41.490;22.098;2023-04-03T13:01:17;15.05;;;10.55;;
70825;SDS011;58446;41.490;22.098;2023-04-03T13:03:56;16.83;;;12.55;;
70825;SDS011;58446;41.490;22.098;2023-04-03T13:09:21;13.33;;;10.13;;
70825;SDS011;58446;41.490;22.098;2023-04-03T13:12:03;13.98;;;10.23;;
70825;SDS011;58446;41.490;22.098;2023-04-03T13:14:36;12.95;;;9.30;;
70825;SDS011;58446;41.490;22.098;2023-04-03T13:19:39;12.57;;;8.45;;
70825;SDS011;58446;41.490;22.098;2023-04-03T13:25:09;13.45;;;10.10;;
70825;SDS011;58446;41.490;22.098;2023-04-03T13:27:38;12.88;;;9.50;;
70825;SDS011;58446;41.490;22.098;2023-04-03T13:30:17;13.00;;;9.93;;
70825;SDS011;58446;41.490;22.098;2023-04-03T13:32:52;17.92;;;12.10;;
70825;SDS011;58446;41.490;22.098;2023-04-03T13:35:27;37.60;;;28.27;;
70825;SDS011;58446;41.490;22.098;2023-04-03T13:40:51;23.98;;;17.02;;
70825;SDS011;58446;41.490;22.098;2023-04-03T13:43:27;19.88;;;14.68;;
70825;SDS011;58446;41.490;22.098;2023-04-03T13:45:59;38.47;;;24.60;;
70825;SDS011;58446;41.490;22.098;2023-04-03T13:48:46;37.60;;;25.00;;
70825;SDS011;58446;41.490;22.098;2023-04-03T13:53:58;19.95;;;15.48;;
70825;SDS011;58446;41.490;22.098;2023-04-03T14:01:54;20.83;;;15.20;;
70825;SDS011;58446;41.490;22.098;2023-04-03T14:04:24;22.30;;;15.63;;
70825;SDS011;58446;41.490;22.098;2023-04-03T14:06:52;24.67;;;16.77;;
70825;SDS011;58446;41.490;22.098;2023-04-03T14:09:19;17.95;;;13.38;;
70825;SDS011;58446;41.490;22.098;2023-04-03T14:11:46;16.38;;;11.48;;
70825;SDS011;58446;41.490;22.098;2023-04-03T14:14:16;17.43;;;12.10;;
70825;SDS011;58446;41.490;22.098;2023-04-03T14:16:48;21.67;;;13.25;;
70825;SDS011;58446;41.490;22.098;2023-04-03T14:19:24;17.63;;;12.32;;
70825;SDS011;58446;41.490;22.098;2023-04-03T14:21:52;21.08;;;14.90;;
70825;SDS011;58446;41.490;22.098;2023-04-03T14:24:19;27.63;;;17.02;;
70825;SDS011;58446;41.490;22.098;2023-04-03T14:26:46;41.53;;;24.47;;
70825;SDS011;58446;41.490;22.098;2023-04-03T14:29:13;25.77;;;17.30;;
70825;SDS011;58446;41.490;22.098;2023-04-03T14:31:40;57.45;;;36.08;;
70825;SDS011;58446;41.490;22.098;2023-04-03T14:34:08;37.13;;;25.70;;
70825;SDS011;58446;41.490;22.098;2023-04-03T14:36:38;58.88;;;38.10;;
70825;SDS011;58446;41.490;22.098;2023-04-03T14:39:06;41.87;;;28.80;;
70825;SDS011;58446;41.490;22.098;2023-04-03T14:41:34;29.77;;;20.80;;
70825;SDS011;58446;41.490;22.098;2023-04-03T14:44:00;35.30;;;23.90;;
70825;SDS011;58446;41.490;22.098;2023-04-03T14:46:33;55.35;;;35.53;;
70825;SDS011;58446;41.490;22.098;2023-04-03T14:49:01;40.77;;;28.70;;
70825;SDS011;58446;41.490;22.098;2023-04-03T14:51:32;44.90;;;32.20;;
70825;SDS011;58446;41.490;22.098;2023-04-03T14:53:59;42.72;;;32.15;;
70825;SDS011;58446;41.490;22.098;2023-04-03T14:56:26;35.47;;;23.48;;
70825;SDS011;58446;41.490;22.098;2023-04-03T14:58:56;33.67;;;21.92;;
70825;SDS011;58446;41.490;22.098;2023-04-03T15:01:24;38.80;;;24.23;;
70825;SDS011;58446;41.490;22.098;2023-04-03T15:03:50;54.15;;;31.35;;
70825;SDS011;58446;41.490;22.098;2023-04-03T15:06:16;37.55;;;22.08;;
70825;SDS011;58446;41.490;22.098;2023-04-03T15:08:42;38.27;;;22.53;;
70825;SDS011;58446;41.490;22.098;2023-04-03T15:11:09;33.85;;;21.50;;
70825;SDS011;58446;41.490;22.098;2023-04-03T15:13:36;42.70;;;26.67;;
70825;SDS011;58446;41.490;22.098;2023-04-03T15:16:04;38.92;;;24.70;;
70825;SDS011;58446;41.490;22.098;2023-04-03T15:18:32;41.10;;;24.80;;
70825;SDS011;58446;41.490;22.098;2023-04-03T15:21:03;46.43;;;29.53;;
70825;SDS011;58446;41.490;22.098;2023-04-03T15:23:29;42.15;;;27.15;;
70825;SDS011;58446;41.490;22.098;2023-04-03T15:25:55;69.22;;;38.30;;
70825;SDS011;58446;41.490;22.098;2023-04-03T15:28:28;54.25;;;33.25;;
70825;SDS011;58446;41.490;22.098;2023-04-03T15:30:57;45.83;;;26.47;;
70825;SDS011;58446;41.490;22.098;2023-04-03T15:33:23;54.80;;;32.20;;
70825;SDS011;58446;41.490;22.098;2023-04-03T15:35:48;58.38;;;31.90;;
70825;SDS011;58446;41.490;22.098;2023-04-03T15:38:14;51.13;;;28.80;;
70825;SDS011;58446;41.490;22.098;2023-04-03T15:40:40;60.05;;;33.10;;
70825;SDS011;58446;41.490;22.098;2023-04-03T15:43:07;56.72;;;31.85;;
70825;SDS011;58446;41.490;22.098;2023-04-03T15:45:33;57.90;;;32.63;;
70825;SDS011;58446;41.490;22.098;2023-04-03T15:48:01;57.95;;;33.88;;
70825;SDS011;58446;41.490;22.098;2023-04-03T15:50:28;60.20;;;35.22;;
70825;SDS011;58446;41.490;22.098;2023-04-03T15:52:54;66.50;;;37.80;;
70825;SDS011;58446;41.490;22.098;2023-04-03T15:55:29;99.82;;;51.03;;
70825;SDS011;58446;41.490;22.098;2023-04-03T15:57:57;134.18;;;71.05;;
70825;SDS011;58446;41.490;22.098;2023-04-03T16:00:23;77.55;;;44.95;;
70825;SDS011;58446;41.490;22.098;2023-04-03T16:02:52;74.97;;;40.65;;
70825;SDS011;58446;41.490;22.098;2023-04-03T16:05:21;69.33;;;39.00;;
70825;SDS011;58446;41.490;22.098;2023-04-03T16:07:47;71.47;;;40.97;;
70825;SDS011;58446;41.490;22.098;2023-04-03T16:10:14;59.42;;;35.60;;
70825;SDS011;58446;41.490;22.098;2023-04-03T16:12:41;63.17;;;38.10;;
70825;SDS011;58446;41.490;22.098;2023-04-03T16:15:07;51.37;;;33.57;;
70825;SDS011;58446;41.490;22.098;2023-04-03T16:17:34;27.52;;;20.77;;
70825;SDS011;58446;41.490;22.098;2023-04-03T16:20:01;39.25;;;27.63;;